Time;durP1;ratioP1;P1;durP2;ratioP2;P2;SDS_P1;SDS_P2;PMS_P1;PMS_P2;Temp;Humidity;BMP_temperature;BMP_pressure;BME280_temperature;BME280_humidity;BME280_pressure;Samples;Min_cycle;Max_cycle;Signal;HPM_P1;HPM_P2
2021/03/30 00:02:07;;;;;;;19.98;9.15;;;7.70;82.90;;;;;;5038044;28;20036;-77
2021/03/30 00:04:32;;;;;;;24.38;9.18;;;7.70;83.20;;;;;;5015371;28;20041;-78
2021/03/30 00:06:58;;;;;;;27.52;9.35;;;7.70;83.30;;;;;;5030662;28;20562;-78
2021/03/30 00:09:24;;;;;;;22.05;9.85;;;7.60;83.40;;;;;;5022874;28;20025;-78
2021/03/30 00:11:50;;;;;;;19.23;8.75;;;7.60;83.60;;;;;;5035547;28;20029;-78
2021/03/30 00:14:16;;;;;;;16.67;8.63;;;7.60;84.20;;;;;;5001657;28;20514;-79
2021/03/30 00:16:42;;;;;;;15.57;8.60;;;7.60;83.50;;;;;;5039844;28;20632;-78
2021/03/30 00:19:07;;;;;;;20.55;9.18;;;7.70;83.50;;;;;;5016491;28;20539;-78
2021/03/30 00:21:33;;;;;;;21.83;9.93;;;7.70;83.50;;;;;;5030661;28;20122;-78
2021/03/30 00:23:59;;;;;;;19.20;8.93;;;7.70;83.60;;;;;;5033955;28;20037;-78
2021/03/30 00:26:25;;;;;;;18.85;9.07;;;7.80;83.60;;;;;;5036217;28;20032;-78
2021/03/30 00:28:51;;;;;;;22.38;9.57;;;7.80;83.40;;;;;;5030922;28;20040;-78
2021/03/30 00:31:16;;;;;;;20.17;9.40;;;7.80;83.10;;;;;;5037590;28;20069;-78
2021/03/30 00:33:43;;;;;;;25.35;9.93;;;7.90;83.00;;;;;;5027103;28;20387;-77
2021/03/30 00:36:08;;;;;;;21.80;9.23;;;8.00;82.90;;;;;;5015623;28;20048;-78
2021/03/30 00:38:34;;;;;;;21.10;10.68;;;8.00;82.60;;;;;;5035222;28;20033;-78
2021/03/30 00:41:00;;;;;;;19.63;10.63;;;8.00;82.20;;;;;;5031739;28;20115;-78
2021/03/30 00:43:29;;;;;;;18.80;10.82;;;8.10;82.10;;;;;;5022707;28;20039;-78
2021/03/30 00:45:55;;;;;;;22.83;10.27;;;8.10;82.10;;;;;;5029116;28;20035;-78
2021/03/30 00:48:29;;;;;;;26.42;9.50;;;8.10;81.90;;;;;;5032407;28;20484;-78
2021/03/30 00:50:55;;;;;;;20.33;9.85;;;8.20;81.80;;;;;;5029256;28;20613;-78
2021/03/30 00:53:21;;;;;;;22.75;10.43;;;8.30;81.60;;;;;;5031792;28;20123;-78
2021/03/30 00:55:47;;;;;;;21.30;9.18;;;8.30;81.30;;;;;;5010231;28;20503;-78
2021/03/30 00:58:13;;;;;;;23.75;10.95;;;8.30;81.00;;;;;;5036842;28;20033;-78
2021/03/30 01:00:39;;;;;;;18.65;9.63;;;8.30;80.80;;;;;;5034561;28;20091;-78
2021/03/30 01:03:05;;;;;;;18.92;9.98;;;8.40;80.70;;;;;;5031441;28;20119;-78
2021/03/30 01:05:31;;;;;;;24.35;9.73;;;8.40;80.50;;;;;;5031509;28;20041;-78
2021/03/30 01:08:08;;;;;;;21.95;9.98;;;8.40;80.30;;;;;;5029000;28;20186;-78
2021/03/30 01:10:56;;;;;;;17.80;10.23;;;8.40;80.00;;;;;;5029771;28;20042;-78
2021/03/30 01:13:50;;;;;;;18.90;9.30;;;8.50;79.80;;;;;;5032588;28;20045;-79
2021/03/30 01:16:20;;;;;;;18.98;9.85;;;8.60;79.50;;;;;;5034445;28;20302;-78
2021/03/30 01:18:57;;;;;;;25.17;9.75;;;8.60;79.20;;;;;;5035378;28;20044;-78
2021/03/30 01:22:00;;;;;;;21.08;9.32;;;8.60;79.00;;;;;;5025374;28;20491;-78
2021/03/30 01:24:32;;;;;;;20.48;9.65;;;8.60;78.80;;;;;;5026424;28;20034;-78
2021/03/30 01:27:01;;;;;;;20.25;10.10;;;8.60;78.50;;;;;;5026259;28;20048;-78
2021/03/30 01:29:47;;;;;;;31.23;10.50;;;8.50;78.60;;;;;;5034883;28;20033;-78
2021/03/30 01:32:19;;;;;;;21.80;11.07;;;8.40;78.60;;;;;;5032660;28;20029;-78
2021/03/30 01:34:48;;;;;;;21.85;10.43;;;8.30;78.80;;;;;;5034522;28;20277;-77
2021/03/30 01:37:15;;;;;;;15.57;10.20;;;8.30;79.00;;;;;;5032323;28;20720;-78
2021/03/30 01:39:44;;;;;;;19.92;10.23;;;8.30;79.00;;;;;;5014212;28;20037;-78
2021/03/30 01:42:11;;;;;;;20.95;10.20;;;8.20;79.00;;;;;;5029180;28;20258;-77
2021/03/30 01:44:39;;;;;;;18.60;10.35;;;8.20;79.00;;;;;;5032730;28;20151;-77
2021/03/30 01:47:06;;;;;;;18.83;10.23;;;8.20;79.10;;;;;;5027146;28;20041;-78
2021/03/30 01:49:34;;;;;;;20.05;11.05;;;8.10;79.10;;;;;;5028054;28;20392;-77
2021/03/30 01:52:00;;;;;;;18.95;9.93;;;8.10;79.10;;;;;;5026983;28;20041;-78
2021/03/30 01:54:26;;;;;;;15.73;9.98;;;8.10;78.90;;;;;;5027652;28;20151;-78
2021/03/30 01:56:54;;;;;;;25.60;10.18;;;8.20;78.90;;;;;;5021787;28;20094;-78
2021/03/30 01:59:21;;;;;;;21.17;10.23;;;8.20;78.70;;;;;;5044685;28;20037;-78
2021/03/30 02:01:47;;;;;;;20.73;10.05;;;8.20;79.20;;;;;;5036218;28;20037;-77
2021/03/30 02:04:20;;;;;;;19.30;9.98;;;8.20;78.40;;;;;;5046491;28;20510;-78
2021/03/30 02:06:48;;;;;;;22.75;10.20;;;8.20;78.30;;;;;;5030810;28;20120;-77
2021/03/30 02:09:20;;;;;;;22.65;10.23;;;8.20;78.20;;;;;;5040625;28;20036;-78
2021/03/30 02:11:54;;;;;;;20.30;10.60;;;8.20;78.10;;;;;;5022721;28;20111;-80
2021/03/30 02:14:20;;;;;;;21.30;9.88;;;8.20;78.00;;;;;;5025779;28;20672;-78
2021/03/30 02:17:06;;;;;;;17.75;9.43;;;8.20;77.80;;;;;;5029803;28;20144;-79
2021/03/30 02:19:43;;;;;;;17.33;9.90;;;8.20;77.60;;;;;;5036645;28;20308;-77
2021/03/30 02:22:33;;;;;;;18.98;9.82;;;8.20;77.60;;;;;;5034353;28;20063;-78
2021/03/30 02:25:00;;;;;;;26.08;9.93;;;8.20;77.50;;;;;;5044300;28;20041;-78
2021/03/30 02:27:28;;;;;;;19.25;9.60;;;8.20;77.40;;;;;;5037766;28;20041;-77
2021/03/30 02:29:55;;;;;;;17.33;10.20;;;8.20;77.40;;;;;;5042316;28;20047;-78
2021/03/30 02:32:23;;;;;;;19.00;9.73;;;8.10;77.40;;;;;;5031517;28;20328;-79
2021/03/30 02:34:53;;;;;;;20.05;10.27;;;8.10;77.50;;;;;;5039943;28;20037;-78
2021/03/30 02:37:19;;;;;;;21.52;10.63;;;8.10;77.50;;;;;;5036771;28;20543;-78
2021/03/30 02:39:47;;;;;;;20.02;9.23;;;8.10;77.40;;;;;;5024023;28;20045;-78
2021/03/30 02:42:13;;;;;;;15.82;9.32;;;8.10;77.40;;;;;;5033001;28;20041;-78
2021/03/30 02:44:40;;;;;;;23.77;8.90;;;8.10;77.40;;;;;;5038733;28;20650;-77
2021/03/30 02:47:07;;;;;;;21.42;9.35;;;8.10;77.40;;;;;;5020711;28;20351;-78
2021/03/30 02:49:34;;;;;;;16.90;10.25;;;8.10;78.10;;;;;;5026842;28;20476;-78
2021/03/30 02:52:01;;;;;;;21.83;11.20;;;8.10;77.30;;;;;;5026545;28;20423;-77
2021/03/30 02:54:28;;;;;;;21.30;10.52;;;8.00;77.20;;;;;;5010008;28;20140;-78
2021/03/30 02:57:00;;;;;;;20.00;10.93;;;8.00;77.30;;;;;;5041326;28;20549;-78
2021/03/30 02:59:28;;;;;;;18.35;11.05;;;8.00;77.40;;;;;;5037160;28;20036;-77
2021/03/30 03:01:56;;;;;;;23.15;11.68;;;7.90;77.30;;;;;;5036961;28;20041;-77
2021/03/30 03:04:21;;;;;;;20.90;11.10;;;7.90;77.50;;;;;;5030450;28;20458;-78
2021/03/30 03:06:48;;;;;;;23.63;10.55;;;7.80;77.50;;;;;;5031872;28;20041;-78
2021/03/30 03:09:15;;;;;;;20.13;10.85;;;7.70;77.70;;;;;;5044573;28;20029;-78
2021/03/30 03:11:43;;;;;;;18.17;11.30;;;7.70;77.70;;;;;;5039885;28;20053;-78
2021/03/30 03:14:12;;;;;;;22.60;11.10;;;7.70;77.80;;;;;;5034435;28;20475;-78
2021/03/30 03:16:38;;;;;;;27.15;11.35;;;7.70;77.90;;;;;;5019877;28;20399;-78
2021/03/30 03:19:09;;;;;;;18.17;10.85;;;7.60;77.90;;;;;;5043501;28;20491;-78
2021/03/30 03:21:37;;;;;;;18.73;11.20;;;7.60;78.00;;;;;;5040729;28;20499;-77
2021/03/30 03:24:08;;;;;;;18.90;11.27;;;7.50;78.00;;;;;;5035725;28;20036;-77
2021/03/30 03:26:34;;;;;;;16.73;10.85;;;7.50;78.10;;;;;;5027638;28;20649;-78
2021/03/30 03:29:00;;;;;;;22.00;11.55;;;7.50;78.20;;;;;;5032720;28;20606;-77
2021/03/30 03:31:28;;;;;;;23.08;11.25;;;7.40;78.30;;;;;;5038969;28;20056;-77
2021/03/30 03:34:00;;;;;;;22.90;11.30;;;7.40;78.40;;;;;;5035216;28;20036;-78
2021/03/30 03:36:35;;;;;;;20.83;11.02;;;7.30;78.50;;;;;;5030421;28;20056;-77
2021/03/30 03:39:02;;;;;;;20.80;11.10;;;7.30;78.70;;;;;;5033189;28;21808;-78
2021/03/30 03:41:28;;;;;;;24.42;10.98;;;7.30;78.70;;;;;;5029013;28;20041;-78
2021/03/30 03:43:54;;;;;;;23.63;11.23;;;7.20;78.60;;;;;;5041523;28;20083;-77
2021/03/30 03:46:19;;;;;;;22.23;10.38;;;7.30;78.70;;;;;;5016926;28;20041;-78
2021/03/30 03:48:45;;;;;;;25.58;11.27;;;7.20;78.80;;;;;;5032107;28;20240;-78
2021/03/30 03:51:12;;;;;;;19.45;10.88;;;7.20;78.80;;;;;;5033842;28;20033;-78
2021/03/30 03:53:39;;;;;;;23.85;12.23;;;7.20;78.70;;;;;;5027029;28;20127;-79
2021/03/30 03:56:07;;;;;;;20.25;11.65;;;7.20;78.70;;;;;;5027837;28;20115;-78
2021/03/30 03:58:55;;;;;;;19.98;11.18;;;7.20;78.90;;;;;;5028169;28;20091;-78
2021/03/30 04:01:29;;;;;;;23.55;10.85;;;7.10;78.90;;;;;;5030419;28;20461;-78
2021/03/30 04:04:08;;;;;;;22.15;11.68;;;7.10;79.00;;;;;;5026100;28;20512;-78
2021/03/30 04:06:40;;;;;;;18.00;11.13;;;7.10;79.20;;;;;;5031122;28;20033;-78
2021/03/30 04:09:11;;;;;;;18.80;11.17;;;7.10;79.00;;;;;;5028414;28;20034;-78
2021/03/30 04:11:37;;;;;;;20.25;11.07;;;7.10;79.00;;;;;;5025047;28;20181;-78
2021/03/30 04:14:03;;;;;;;24.17;12.90;;;7.10;79.00;;;;;;5030004;28;20026;-78
2021/03/30 04:16:30;;;;;;;22.73;11.25;;;7.10;79.00;;;;;;5028026;28;20491;-78
2021/03/30 04:18:56;;;;;;;19.20;10.98;;;7.00;79.10;;;;;;5027386;28;20357;-78
2021/03/30 04:21:30;;;;;;;17.55;11.95;;;7.00;79.10;;;;;;5021336;28;20032;-78
2021/03/30 04:23:57;;;;;;;24.98;12.20;;;7.00;79.20;;;;;;5031635;28;20284;-78
2021/03/30 04:26:24;;;;;;;19.98;12.55;;;7.00;79.20;;;;;;5030645;28;20033;-78
2021/03/30 04:28:50;;;;;;;21.05;11.40;;;7.00;79.30;;;;;;5023131;28;20101;-78
2021/03/30 04:31:15;;;;;;;21.98;11.98;;;6.90;79.50;;;;;;5033132;28;20037;-78
2021/03/30 04:33:41;;;;;;;22.33;11.10;;;6.90;79.60;;;;;;5034466;28;20272;-78
2021/03/30 04:36:08;;;;;;;18.10;11.65;;;6.90;79.80;;;;;;5026761;28;20572;-78
2021/03/30 04:38:35;;;;;;;23.38;12.38;;;6.80;79.90;;;;;;5033836;28;20037;-78
2021/03/30 04:41:01;;;;;;;23.40;11.73;;;6.80;80.00;;;;;;5037110;28;20041;-78
2021/03/30 04:43:26;;;;;;;22.30;11.38;;;6.80;80.00;;;;;;5028224;28;20048;-78
2021/03/30 04:45:52;;;;;;;20.05;11.30;;;6.80;80.00;;;;;;5010510;28;20045;-78
2021/03/30 04:48:19;;;;;;;24.67;11.85;;;6.80;80.00;;;;;;5013847;28;20068;-78
2021/03/30 04:50:45;;;;;;;23.10;11.40;;;6.80;80.10;;;;;;5032236;28;20068;-78
2021/03/30 04:53:12;;;;;;;24.17;12.15;;;6.70;80.00;;;;;;5038171;28;20036;-78
2021/03/30 04:55:38;;;;;;;21.98;11.95;;;6.80;80.00;;;;;;5035555;28;20067;-78
2021/03/30 04:58:04;;;;;;;22.77;11.95;;;6.80;80.00;;;;;;5031553;28;20036;-78
2021/03/30 05:00:30;;;;;;;26.95;12.10;;;6.70;79.90;;;;;;5027149;28;20052;-78
2021/03/30 05:02:56;;;;;;;20.00;12.40;;;6.80;79.80;;;;;;5040346;28;21290;-78
2021/03/30 05:05:23;;;;;;;19.25;11.70;;;6.70;79.80;;;;;;5039269;28;20031;-78
2021/03/30 05:07:49;;;;;;;22.02;11.98;;;6.70;79.80;;;;;;5038180;28;20710;-78
2021/03/30 05:10:15;;;;;;;23.35;12.48;;;6.70;79.90;;;;;;5037314;28;20523;-78
2021/03/30 05:12:41;;;;;;;20.13;12.57;;;6.70;80.00;;;;;;5036841;28;20052;-78
2021/03/30 05:15:08;;;;;;;20.30;12.23;;;6.60;80.10;;;;;;5034522;28;20039;-78
2021/03/30 05:17:34;;;;;;;22.92;12.25;;;6.60;80.20;;;;;;5040817;28;20036;-78
2021/03/30 05:20:02;;;;;;;21.40;12.43;;;6.50;80.20;;;;;;5028577;28;20033;-78
2021/03/30 05:22:39;;;;;;;23.75;12.93;;;6.50;80.40;;;;;;5039160;28;20514;-78
2021/03/30 05:25:07;;;;;;;21.90;12.13;;;6.50;80.40;;;;;;5025608;28;20044;-78
2021/03/30 05:27:37;;;;;;;18.83;12.27;;;6.50;80.50;;;;;;5040653;28;20167;-78
2021/03/30 05:30:09;;;;;;;23.45;12.10;;;6.50;80.70;;;;;;5035312;28;20488;-78
2021/03/30 05:32:35;;;;;;;22.47;12.90;;;6.50;80.60;;;;;;5040441;28;20041;-79
2021/03/30 05:35:00;;;;;;;25.17;12.35;;;6.50;80.40;;;;;;5031846;28;20041;-77
2021/03/30 05:37:26;;;;;;;25.05;12.10;;;6.50;80.30;;;;;;5037361;28;20032;-77
2021/03/30 05:39:53;;;;;;;20.63;12.18;;;6.50;80.20;;;;;;5022216;28;20611;-78
2021/03/30 05:42:21;;;;;;;22.98;12.77;;;6.50;80.20;;;;;;5038100;28;20033;-78
2021/03/30 05:44:52;;;;;;;26.05;13.32;;;6.50;80.40;;;;;;5039789;28;21207;-78
2021/03/30 05:47:20;;;;;;;22.42;12.43;;;6.50;80.60;;;;;;5033038;28;20488;-78
2021/03/30 05:49:47;;;;;;;27.48;12.60;;;6.50;80.70;;;;;;5022457;28;20038;-78
2021/03/30 05:52:27;;;;;;;22.02;12.43;;;6.40;80.60;;;;;;5031776;28;20196;-77
2021/03/30 05:54:56;;;;;;;24.02;12.75;;;6.50;80.90;;;;;;5035885;28;20485;-78
2021/03/30 05:57:29;;;;;;;21.35;12.48;;;6.40;80.90;;;;;;5027348;28;20033;-78
2021/03/30 06:00:00;;;;;;;26.73;13.27;;;6.50;81.00;;;;;;5029930;28;20047;-78
2021/03/30 06:02:35;;;;;;;27.48;12.68;;;6.50;80.80;;;;;;5018293;28;20049;-78
2021/03/30 06:05:01;;;;;;;21.63;12.00;;;6.50;80.80;;;;;;5027664;28;20704;-78
2021/03/30 06:07:31;;;;;;;22.65;11.88;;;6.60;80.80;;;;;;5031885;28;20059;-78
2021/03/30 06:09:58;;;;;;;20.33;12.05;;;6.60;80.70;;;;;;5031521;28;20132;-78
2021/03/30 06:12:24;;;;;;;19.30;12.05;;;6.70;80.60;;;;;;5030148;28;20025;-78
2021/03/30 06:14:50;;;;;;;25.52;12.05;;;6.70;80.50;;;;;;5031770;28;20531;-78
2021/03/30 06:17:16;;;;;;;21.60;12.35;;;6.70;80.40;;;;;;5018327;28;20045;-79
2021/03/30 06:19:56;;;;;;;28.00;12.13;;;6.80;80.40;;;;;;5025633;28;20057;-77
2021/03/30 06:22:24;;;;;;;20.85;11.32;;;6.80;80.60;;;;;;5032834;28;20025;-78
2021/03/30 06:24:52;;;;;;;22.00;12.10;;;6.90;80.10;;;;;;5027410;28;20051;-78
2021/03/30 06:27:29;;;;;;;21.17;12.23;;;6.90;80.00;;;;;;5024102;28;20528;-78
2021/03/30 06:29:58;;;;;;;24.55;12.52;;;7.00;79.80;;;;;;5030208;28;20116;-78
2021/03/30 06:32:25;;;;;;;26.33;12.50;;;7.10;79.70;;;;;;5040283;28;20079;-78
2021/03/30 06:34:58;;;;;;;21.60;12.50;;;7.20;80.00;;;;;;5020411;28;20438;-78
2021/03/30 06:37:30;;;;;;;;;;;7.20;79.10;;;;;;5020952;28;20034;-78
2021/03/30 06:40:00;;;;;;;21.98;11.43;;;7.30;79.00;;;;;;5022341;28;20697;-79
2021/03/30 06:45:10;;;;;;;19.35;11.63;;;7.40;78.30;;;;;;5045448;28;20068;-77
2021/03/30 06:47:37;;;;;;;22.50;12.43;;;7.50;78.20;;;;;;5024216;28;20395;-77
2021/03/30 06:50:09;;;;;;;20.92;12.70;;;7.60;78.00;;;;;;5036481;28;20706;-77
2021/03/30 06:52:37;;;;;;;20.60;12.13;;;7.70;77.90;;;;;;5039218;28;20511;-78
2021/03/30 06:55:08;;;;;;;22.77;11.38;;;7.80;77.70;;;;;;5040118;28;20249;-78
2021/03/30 06:57:37;;;;;;;20.77;12.60;;;7.90;77.60;;;;;;5041608;28;20025;-78
2021/03/30 07:00:06;;;;;;;24.02;12.52;;;8.00;77.40;;;;;;5036776;28;20044;-78
2021/03/30 07:02:33;;;;;;;19.38;12.02;;;8.10;77.50;;;;;;5030394;28;20061;-78
2021/03/30 07:04:58;;;;;;;25.58;12.82;;;8.20;78.10;;;;;;5038248;28;20029;-77
2021/03/30 07:07:30;;;;;;;24.63;11.65;;;8.30;77.30;;;;;;5046641;28;20116;-78
2021/03/30 07:09:58;;;;;;;20.25;10.80;;;8.40;76.80;;;;;;5030578;28;20182;-78
2021/03/30 07:12:24;;;;;;;26.60;12.55;;;8.50;76.30;;;;;;5048963;28;20079;-77
2021/03/30 07:14:50;;;;;;;22.45;10.90;;;8.70;75.70;;;;;;5014963;28;20431;-78
2021/03/30 07:17:27;;;;;;;22.65;11.20;;;8.80;75.30;;;;;;5032290;28;20116;-77
2021/03/30 07:19:56;;;;;;;26.25;11.30;;;8.90;74.70;;;;;;5030465;28;20131;-77
2021/03/30 07:22:24;;;;;;;22.73;11.55;;;9.00;74.60;;;;;;5045283;28;20048;-77
2021/03/30 07:25:11;;;;;;;17.48;10.75;;;9.10;74.20;;;;;;5046816;28;20734;-78
2021/03/30 07:27:59;;;;;;;20.15;10.80;;;9.30;73.20;;;;;;5031671;28;20484;-77
2021/03/30 07:30:26;;;;;;;19.45;10.75;;;9.40;73.10;;;;;;5035742;28;20034;-77
2021/03/30 07:33:07;;;;;;;18.13;10.52;;;9.50;72.90;;;;;;5038677;28;20112;-78
2021/03/30 07:35:37;;;;;;;16.60;11.00;;;9.60;71.90;;;;;;5043331;28;20033;-78
2021/03/30 07:38:10;;;;;;;14.65;10.00;;;9.70;71.90;;;;;;5032773;28;20513;-78
2021/03/30 07:40:39;;;;;;;19.35;10.45;;;9.80;71.60;;;;;;5043608;28;20411;-77
2021/03/30 07:43:12;;;;;;;18.75;10.63;;;9.90;71.00;;;;;;5040770;28;20042;-77
2021/03/30 07:45:42;;;;;;;19.45;10.48;;;10.00;71.20;;;;;;5033063;28;20072;-77
2021/03/30 07:48:13;;;;;;;17.70;11.18;;;10.20;71.10;;;;;;5034804;28;20395;-77
2021/03/30 07:50:53;;;;;;;18.73;10.35;;;10.30;70.70;;;;;;5039615;28;20052;-77
2021/03/30 07:53:54;;;;;;;23.08;12.15;;;10.40;70.60;;;;;;5043138;28;20086;-78
2021/03/30 07:56:28;;;;;;;23.38;11.27;;;10.50;70.40;;;;;;5039337;28;20068;-77
2021/03/30 07:58:56;;;;;;;17.77;10.45;;;10.60;70.40;;;;;;5038586;28;20155;-77
2021/03/30 08:01:24;;;;;;;21.55;11.55;;;10.70;70.20;;;;;;5042928;28;20220;-78
2021/03/30 08:03:53;;;;;;;20.33;11.35;;;10.90;70.00;;;;;;5041832;28;20483;-78
2021/03/30 08:06:31;;;;;;;20.80;11.50;;;11.00;70.00;;;;;;5041101;28;20033;-78
2021/03/30 08:09:00;;;;;;;17.17;11.75;;;11.10;69.80;;;;;;5044952;28;20033;-78
2021/03/30 08:11:50;;;;;;;20.73;11.80;;;11.20;69.80;;;;;;5032222;28;20072;-78
2021/03/30 08:14:19;;;;;;;17.15;10.40;;;11.30;69.70;;;;;;5042749;28;20178;-79
2021/03/30 08:16:48;;;;;;;23.27;11.63;;;11.40;69.30;;;;;;5035818;28;20585;-79
2021/03/30 08:19:15;;;;;;;18.48;11.13;;;11.50;69.50;;;;;;5042802;28;20463;-78
2021/03/30 08:22:00;;;;;;;18.65;11.18;;;11.50;69.20;;;;;;5043610;28;20041;-78
2021/03/30 08:24:47;;;;;;;21.38;11.43;;;11.70;68.20;;;;;;5032641;28;20049;-79
2021/03/30 08:27:31;;;;;;;19.50;10.93;;;11.80;68.40;;;;;;5015487;28;20056;-78
2021/03/30 08:30:19;;;;;;;20.45;10.80;;;11.80;67.80;;;;;;5046028;28;20044;-79
2021/03/30 08:32:47;;;;;;;20.45;11.70;;;11.90;68.20;;;;;;5039557;28;20029;-78
2021/03/30 08:35:36;;;;;;;25.20;11.82;;;12.00;68.10;;;;;;5029499;28;20061;-78
2021/03/30 08:38:02;;;;;;;19.27;9.75;;;12.20;68.20;;;;;;5035923;28;20208;-79
2021/03/30 08:40:34;;;;;;;22.83;11.60;;;12.30;68.30;;;;;;5032733;28;20029;-78
2021/03/30 08:43:13;;;;;;;25.38;11.30;;;12.40;67.70;;;;;;5033496;28;20076;-78
2021/03/30 08:45:54;;;;;;;23.17;11.05;;;12.50;67.40;;;;;;5042961;28;20108;-79
2021/03/30 08:48:49;;;;;;;22.60;10.77;;;12.60;66.60;;;;;;5042930;28;20033;-78
2021/03/30 08:51:18;;;;;;;18.02;10.50;;;12.70;66.60;;;;;;5042398;28;20395;-78
2021/03/30 08:53:44;;;;;;;20.40;9.75;;;12.90;67.10;;;;;;5046096;28;20495;-79
2021/03/30 08:56:12;;;;;;;20.90;9.73;;;13.00;66.40;;;;;;5043651;28;20067;-78
2021/03/30 08:58:48;;;;;;;18.75;9.02;;;13.10;65.90;;;;;;5032820;28;20225;-78
2021/03/30 09:01:15;;;;;;;23.00;9.07;;;13.20;65.00;;;;;;5029987;28;20646;-79
2021/03/30 09:03:41;;;;;;;23.45;9.13;;;13.30;64.70;;;;;;5024468;28;20036;-78
2021/03/30 09:06:33;;;;;;;17.33;8.88;;;13.40;64.30;;;;;;5043375;28;20120;-78
2021/03/30 09:08:59;;;;;;;22.20;11.40;;;13.50;63.70;;;;;;5036584;28;20029;-79
2021/03/30 09:11:27;;;;;;;25.05;11.60;;;13.60;64.70;;;;;;5040580;28;20036;-78
2021/03/30 09:14:01;;;;;;;18.60;9.90;;;13.80;65.20;;;;;;5034370;28;20037;-78
2021/03/30 09:16:33;;;;;;;22.17;10.82;;;13.90;64.90;;;;;;5037050;28;20037;-79
2021/03/30 09:19:31;;;;;;;17.38;10.73;;;14.10;64.50;;;;;;5028870;28;20494;-78
2021/03/30 09:22:02;;;;;;;23.75;10.02;;;14.20;64.40;;;;;;5043587;28;20088;-78
2021/03/30 09:27:12;;;;;;;17.08;9.32;;;14.40;63.40;;;;;;5032069;28;20033;-79
2021/03/30 09:29:38;;;;;;;19.23;10.30;;;14.40;62.90;;;;;;5043369;28;20041;-79
2021/03/30 09:32:09;;;;;;;23.38;10.90;;;14.50;62.60;;;;;;5045973;28;20041;-79
2021/03/30 09:34:42;;;;;;;17.92;10.20;;;14.60;62.80;;;;;;5041915;28;20041;-79
2021/03/30 09:37:08;;;;;;;20.90;9.60;;;14.70;62.50;;;;;;5029476;28;20087;-78
2021/03/30 09:39:36;;;;;;;17.88;9.45;;;14.80;61.90;;;;;;5030299;28;20483;-80
2021/03/30 09:42:02;;;;;;;22.60;9.65;;;14.90;62.40;;;;;;5036534;28;20047;-79
2021/03/30 09:44:35;;;;;;;20.50;9.68;;;15.00;61.80;;;;;;5041557;28;20040;-79
2021/03/30 09:47:01;;;;;;;21.08;9.40;;;15.10;61.40;;;;;;5038745;28;20472;-78
2021/03/30 09:49:27;;;;;;;22.23;9.70;;;15.20;61.50;;;;;;5026991;28;20030;-79
2021/03/30 09:51:54;;;;;;;20.30;8.63;;;15.30;61.00;;;;;;5022328;28;20120;-79
2021/03/30 09:54:26;;;;;;;23.02;9.02;;;15.40;60.40;;;;;;5029969;28;20399;-79
2021/03/30 09:57:10;;;;;;;19.50;8.20;;;15.40;60.00;;;;;;5051967;28;20116;-80
2021/03/30 09:59:36;;;;;;;22.95;8.95;;;15.40;60.00;;;;;;5034926;28;20038;-80
2021/03/30 10:02:03;;;;;;;16.33;8.45;;;15.40;59.80;;;;;;5027116;28;20123;-80
2021/03/30 10:04:33;;;;;;;19.63;8.48;;;15.50;59.30;;;;;;5020745;28;20396;-79
2021/03/30 10:06:59;;;;;;;18.80;7.72;;;15.50;59.20;;;;;;5036014;28;20120;-79
2021/03/30 10:09:25;;;;;;;22.20;7.82;;;15.60;58.70;;;;;;5025072;28;20124;-79
2021/03/30 10:11:52;;;;;;;16.20;7.25;;;15.70;58.10;;;;;;5020170;28;20121;-78
2021/03/30 10:14:26;;;;;;;15.70;7.13;;;15.80;57.60;;;;;;5039213;28;20310;-80
2021/03/30 10:16:55;;;;;;;17.65;8.20;;;15.90;56.80;;;;;;5037093;28;20442;-80
2021/03/30 10:19:22;;;;;;;17.33;8.23;;;16.10;56.60;;;;;;5036272;28;20119;-81
2021/03/30 10:21:55;;;;;;;15.32;8.07;;;16.10;56.80;;;;;;5030787;28;20495;-80
2021/03/30 10:24:21;;;;;;;20.00;7.35;;;16.30;55.80;;;;;;5031194;28;20068;-80
2021/03/30 10:27:10;;;;;;;16.13;7.43;;;16.50;54.90;;;;;;5047783;28;20045;-80
2021/03/30 10:29:39;;;;;;;14.32;6.90;;;16.60;52.30;;;;;;5047305;28;20048;-83
2021/03/30 10:32:15;;;;;;;13.48;7.18;;;16.60;53.40;;;;;;5024999;28;20040;-81
2021/03/30 10:34:41;;;;;;;15.93;7.03;;;16.80;52.30;;;;;;5048904;28;20041;-80
2021/03/30 10:37:11;;;;;;;18.77;7.22;;;16.90;52.30;;;;;;5035746;28;20506;-79
2021/03/30 10:39:44;;;;;;;16.65;7.07;;;16.90;51.40;;;;;;5042027;28;20041;-78
2021/03/30 10:42:11;;;;;;;15.52;6.60;;;17.10;50.00;;;;;;5049472;28;20110;-79
2021/03/30 10:44:45;;;;;;;16.25;6.82;;;17.10;50.30;;;;;;5058392;28;20046;-80
2021/03/30 10:47:20;;;;;;;13.80;6.85;;;17.20;49.30;;;;;;5030281;28;20029;-79
2021/03/30 10:49:55;;;;;;;14.65;7.25;;;17.30;49.20;;;;;;5039205;28;20037;-80
2021/03/30 10:52:26;;;;;;;15.05;7.00;;;17.30;49.00;;;;;;5038506;28;20032;-81
2021/03/30 10:54:54;;;;;;;17.83;5.95;;;17.40;50.00;;;;;;5045186;28;20083;-81
2021/03/30 10:57:21;;;;;;;13.35;6.65;;;17.50;48.10;;;;;;5044125;28;20025;-80
2021/03/30 10:59:47;;;;;;;13.52;6.78;;;17.60;47.40;;;;;;5040791;28;20099;-79
2021/03/30 11:02:14;;;;;;;19.00;6.18;;;17.60;47.00;;;;;;5038631;28;20040;-80
2021/03/30 11:04:41;;;;;;;12.43;5.70;;;17.70;47.00;;;;;;5047071;28;20095;-80
2021/03/30 11:07:08;;;;;;;13.38;6.28;;;17.90;46.30;;;;;;5024106;28;20475;-80
2021/03/30 11:09:34;;;;;;;13.40;6.68;;;18.00;46.20;;;;;;5039140;28;20041;-81
2021/03/30 11:12:00;;;;;;;17.92;7.03;;;18.20;46.70;;;;;;5030917;28;20439;-81
2021/03/30 11:14:27;;;;;;;16.17;6.68;;;18.30;45.50;;;;;;5031893;28;20035;-81
2021/03/30 11:16:53;;;;;;;14.48;7.22;;;18.40;44.40;;;;;;5018809;28;20033;-81
2021/03/30 11:19:19;;;;;;;16.35;7.93;;;18.40;44.70;;;;;;5041809;28;20364;-81
2021/03/30 11:21:46;;;;;;;22.90;7.85;;;18.50;44.70;;;;;;5022517;28;20042;-81
2021/03/30 11:24:21;;;;;;;18.17;7.30;;;18.50;44.90;;;;;;5025507;28;20443;-83
2021/03/30 11:26:51;;;;;;;16.08;7.30;;;18.60;44.00;;;;;;5033464;28;20426;-80
2021/03/30 11:29:25;;;;;;;10.98;5.72;;;18.60;43.20;;;;;;5036321;28;20437;-81
2021/03/30 11:39:39;;;;;;;13.10;5.60;;;19.00;41.20;;;;;;5042067;28;20037;-81
2021/03/30 11:42:06;;;;;;;11.82;5.03;;;19.10;41.40;;;;;;5038116;28;20082;-82
2021/03/30 11:44:33;;;;;;;7.68;4.93;;;19.30;40.70;;;;;;5054843;28;20029;-81
2021/03/30 11:46:59;;;;;;;17.27;5.15;;;19.40;39.70;;;;;;5024833;28;20517;-82
2021/03/30 11:49:26;;;;;;;10.68;5.68;;;19.40;39.20;;;;;;5037479;28;20042;-79
2021/03/30 11:51:52;;;;;;;12.48;5.28;;;19.50;39.40;;;;;;5030341;28;20037;-80
2021/03/30 11:54:18;;;;;;;11.43;5.15;;;19.60;39.80;;;;;;5035547;28;20512;-83
2021/03/30 11:56:44;;;;;;;9.30;5.18;;;19.70;38.70;;;;;;5038289;28;20047;-81
2021/03/30 11:59:10;;;;;;;12.02;5.45;;;19.80;38.80;;;;;;5021466;28;20128;-82
2021/03/30 12:01:36;;;;;;;12.93;5.57;;;19.90;38.40;;;;;;5042078;28;20049;-81
2021/03/30 12:04:02;;;;;;;10.88;5.25;;;20.10;37.80;;;;;;5023401;28;20116;-82
2021/03/30 12:06:27;;;;;;;10.75;5.25;;;20.20;37.70;;;;;;5039241;28;20029;-81
2021/03/30 12:08:53;;;;;;;10.52;5.82;;;20.20;37.40;;;;;;5023834;28;20037;-82
2021/03/30 12:11:19;;;;;;;15.57;5.80;;;20.40;38.10;;;;;;5039989;28;20059;-83
2021/03/30 12:13:45;;;;;;;11.07;5.43;;;20.60;38.00;;;;;;5017734;28;20056;-80
2021/03/30 12:16:12;;;;;;;9.90;4.95;;;20.80;37.50;;;;;;5037316;28;20396;-81
2021/03/30 12:18:38;;;;;;;9.75;5.43;;;21.00;37.20;;;;;;5024795;28;20793;-82
2021/03/30 12:21:04;;;;;;;15.80;6.30;;;21.20;37.10;;;;;;5011684;28;20079;-80
2021/03/30 12:23:30;;;;;;;9.25;5.43;;;21.40;36.40;;;;;;5048216;28;20037;-80
2021/03/30 12:25:56;;;;;;;9.60;5.13;;;21.50;35.40;;;;;;5042283;28;20036;-81
2021/03/30 12:28:22;;;;;;;10.60;5.00;;;21.50;35.40;;;;;;5039254;28;20139;-81
2021/03/30 12:30:48;;;;;;;10.13;4.70;;;21.60;34.60;;;;;;5035359;28;20034;-81
2021/03/30 12:33:14;;;;;;;9.32;5.60;;;21.50;34.10;;;;;;5032989;28;20132;-81
2021/03/30 12:35:40;;;;;;;12.98;5.53;;;21.50;33.90;;;;;;5021992;28;20132;-82
2021/03/30 12:38:06;;;;;;;10.98;5.20;;;21.50;34.00;;;;;;5025878;28;20452;-82
2021/03/30 12:40:32;;;;;;;10.75;4.60;;;21.50;34.30;;;;;;5025668;28;20122;-81
2021/03/30 12:42:57;;;;;;;12.80;5.00;;;21.60;34.60;;;;;;5033449;28;20456;-82
2021/03/30 12:45:23;;;;;;;8.63;4.60;;;21.80;34.50;;;;;;5049491;28;20387;-83
2021/03/30 12:47:50;;;;;;;8.27;4.95;;;21.90;34.60;;;;;;5024539;28;20480;-81
2021/03/30 12:50:16;;;;;;;11.77;5.57;;;21.80;34.50;;;;;;5042536;28;20035;-81
2021/03/30 12:52:41;;;;;;;10.18;5.13;;;21.70;33.90;;;;;;5026719;28;20041;-81
2021/03/30 12:55:10;;;;;;;9.75;4.78;;;21.60;34.40;;;;;;5006557;28;20082;-82
2021/03/30 12:57:36;;;;;;;9.93;5.43;;;21.60;34.40;;;;;;5041312;28;20033;-81
2021/03/30 13:00:05;;;;;;;9.18;5.43;;;21.60;33.40;;;;;;5041167;28;20036;-81
2021/03/30 13:02:31;;;;;;;9.10;4.55;;;21.50;32.40;;;;;;5035675;28;20137;-80
2021/03/30 13:04:57;;;;;;;9.45;4.35;;;21.50;32.70;;;;;;5048264;28;20127;-81